ZGHAZHHH

Guest
Details From ZGHA - HUANGHUA
To ZHHH - TIANHE
Flight Number -
Tags generated
Created
Modified
Stats Distance 164 nm / 304 km
Max Altitude 19,600 ft / 5,974 m
Waypoints 3
Social Downloads 0
Likes 0
Share VATSIM

Download

Looking for another format? Having issues loading an existing format? Contact us
Advertisement - Login to hide

Notes

Basic altitude profile: - Ascent Rate: 2500ft/min - Ascent Speed: 250kts - Cruise Altitude: 35000ft - Cruise Speed: 420kts - Descent Rate: 1500ft/min - Descent Speed: 250kts

Route

ZGHA DAPRO ZHHH

ID Type Via Altitude Latitude Longitude Leg Dist Tot Dist Heading (true) Name
O ZGHA APT - 0 ft / 0 m 28.18916˚ 113.21963˚ - 0 nm - HUANGHUA
DAPRO FIX - 19,600 ft / 5,974 m 29.25667˚ 113.64667˚ 67 nm 67 nm 19° / 19° -
O ZHHH APT - 0 ft / 0 m 30.78376˚ 114.20810˚ 96 nm 164 nm 18° / 18° TIANHE

Altitude Profile

Advertisement - Login to hide

Weather


0- 5 10 15 20 25 30 35+ Temperature / ° C

Clouds and Precipitation
Forecast for 2017-12-14 06:00 UTC. Updated an hour ago

Ground ~20,000 ft ~40,000 ft Winds

ZGHA

Details ICAO ZGHA (CSX)
Name HUANGHUA
Region China
Timezone Asia/Shanghai (UTC+8.0)
Stats Elevation 217 ft / 66 m (AMSL)
Location 28.189159° 113.219632°
Runways 1
Magnetic Variation 3.702° W

METAR

ZGHA 140200Z 35005MPS 3200 BR BKN006 OVC050 06/05 Q1028 BECMG TL0300 BKN010 OVC050

Decode

TAF

Not found

Departure Runways

ID Width Length Bearing (true) Bearing (mag) Surface Threshold Offset Overrun Length
18 148 ft / 45 m 8,563 ft / 2,610 m 176.99° 180.69° Concrete 0 ft / 0 m 197 ft / 60 m
36 148 ft / 45 m 8,563 ft / 2,610 m 356.99° 0.69° Concrete 0 ft / 0 m 197 ft / 60 m

ZHHH

Details ICAO ZHHH (WUH)
Name TIANHE
Region China
Timezone Asia/Shanghai (UTC+8.0)
Stats Elevation 113 ft / 34 m (AMSL)
Location 30.783759° 114.208099°
Runways 1
Magnetic Variation 4.385° W

METAR

ZHHH 140200Z 05002MPS 010V080 4000 BR SCT010 OVC033 05/03 Q1029 NOSIG

Decode

TAF

Not found

Destination Runways

ID Width Length Bearing (true) Bearing (mag) Surface Threshold Offset Overrun Length
04 148 ft / 45 m 11,170 ft / 3,405 m 41.41° 45.80° Concrete 0 ft / 0 m 197 ft / 60 m
22 148 ft / 45 m 11,170 ft / 3,405 m 221.42° 225.81° Concrete 0 ft / 0 m 197 ft / 60 m

Approach Navaids

Runway Type Ident Frequency Range Bearing (true) Bearing (mag) Slope Elevation
04 Localiser IDA 110.30 MHz 18 nm / 33 km 41.57° 45.96° - 112 ft / 34 m (AMSL)
04 Glidescope IDA 110.30 MHz 10 nm / 19 km 41.41° 45.80° 3.00° 112 ft / 34 m (AMSL)
22 Localiser IHG 109.90 MHz 18 nm / 33 km 221.33° 225.72° - 112 ft / 34 m (AMSL)
22 Glidescope IHG 109.90 MHz 10 nm / 19 km 221.41° 225.80° 3.00° 112 ft / 34 m (AMSL)
22 DME IHG 109.90 MHz 18 nm / 33 km - - - 112 ft / 34 m (AMSL)